Espace membre
Imprimable
Challenges > Delhalle - Erpent, 07/02/2009, BEL - La Printanière
Liste des rapports > Delhalle - 15,7km - Classement final
Recherche: Page: [1]
31 Entrées
 
Les réclamations ne sont plus acceptées, les résultats sont considérés comme définitifs.
RangNrNomAgeIOCLigueEquipeRéelTempsTkmMoy.ScrPtsLocalité
1.5FVANDROOGENBROECK Virginie38BELUSBWJOGGPLUS1:03:491:03:524:05 14.7522964BRAINE L'ALLEUD
2.1421FSOENEN Virginie23BEL1:11:241:11:284:34 13.18101807JANDRAIN
3.313FLEGRAND Francine39BEL1:15:331:15:364:49 12.46158719
4.415FROBERTI Daphné33BELCEPALCEPAL1:16:031:16:174:52 12.35169707SAINT-GILLES
5.125FVAN DER ZWALMEN Sabine29BELRIWA1:19:531:20:045:06 11.77246618LASNE
6.2397FOULUKOFF Anais21BEL1:21:381:22:075:14 11.47291573JAMBES
7.2357FSTEVENS Elena34BELBOUFFIOL1:22:001:22:535:17 11.37307561MARCINELLE
8.854FPROBST Christine27LUXTORTUES1:22:531:23:355:20 11.27317545LUXEMBOURG
9.2228FDI BATTISTA Stefana35ITA1:23:161:23:475:21 11.24326536BRUXELLES
10.2250FLECLERC Marion38FRA1:23:181:23:575:21 11.22332532PARIS
11.576FLAINE Claudine36BELRCNAMUR1:25:261:25:395:28 11.00371487FLOREFFE
12.2518FBAUWIN Geraldine26BELRACING BXL1:27:491:28:155:38 10.67422433BRUXELLES
13.1040FSCHRÖDER Cindy37BELKAPUCIJN1:30:111:30:445:47 10.38469382BERTEM
14.2298FGENTEN Caroline29BELCHRONORACE1:30:571:31:155:49 10.32473372TROIS-PONTS
15.2028FBALZAT Sonia36BELETHIAS1:33:461:34:126:00 10.00521316TEMPLOUX
16.2447FVAN LOOK Carine37BEL1:34:381:35:276:05 9.87536299COGNELÉE
17.2217FTUMSON Aurore27BEL1:34:571:35:496:07 9.83541294ANDENNE
18.2421FVANDERAST Caroline33BELUSBW1:35:421:36:346:10 9.75555278
19.2212FDEFOSSE Françoise34BEL1:35:521:36:546:11 9.72559275MOZET
20.1579FGREGOIRE Aude21BELRCNAMUR1:37:351:38:226:16 9.58578246FLAWINNE
21.5012FDEWULF Erika38BEL1:38:041:38:556:19 9.52587237SAUVAGEMONT (LA
22.2218FMEYAN Valeriane27BEL1:38:281:39:206:20 9.48593230ANDENNE
23.2046FDECERF Isabelle36BEL1:39:411:40:296:25 9.37600213WARISOULX
23.2319FLABENNE Sophie Brigitte37BELSMAC1:39:321:40:296:25 9.37600215PROFONDEVILLE
25.2243FVANDECASTEELE Cindy28BEL1:41:041:41:476:29 9.25615191GENT
26.1201FMENET Christel371:43:001:43:546:38 9.07631163
27.2310FALAIME Aurélie Christine30BEL1:44:541:45:136:43 8.95638141WAVRE
28.2246FCORIA Christine39BEL1:45:061:46:096:46 8.87645135JAMBES
29.2203FSIMON Sandrine36BEL1:48:191:48:476:56 8.6666892GEMBLOUX
30.2534FDEWILDE Va35BEL1:50:511:51:397:07 8.4467564
DNF2530FLEGRAND Helene27BEL
DNF: abandon; DSQ: disqualifié; Vitesse en km/h
Page: [1]